sensor_id;sensor_type;location;lat;lon;timestamp;P1;durP1;ratioP1;P2;durP2;ratioP2
59728;SDS011;45588;51.598;5.618;2023-06-14T00:00:57;9.10;;;7.70;;
59728;SDS011;45588;51.598;5.618;2023-06-14T00:03:22;15.57;;;10.43;;
59728;SDS011;45588;51.598;5.618;2023-06-14T00:05:49;10.63;;;7.65;;
59728;SDS011;45588;51.598;5.618;2023-06-14T00:08:15;10.38;;;7.65;;
59728;SDS011;45588;51.598;5.618;2023-06-14T00:10:40;16.40;;;7.95;;
59728;SDS011;45588;51.598;5.618;2023-06-14T00:13:07;10.90;;;9.60;;
59728;SDS011;45588;51.598;5.618;2023-06-14T00:15:32;12.38;;;7.57;;
59728;SDS011;45588;51.598;5.618;2023-06-14T00:17:58;11.02;;;6.03;;
59728;SDS011;45588;51.598;5.618;2023-06-14T00:20:26;9.05;;;5.93;;
59728;SDS011;45588;51.598;5.618;2023-06-14T00:22:52;8.35;;;6.72;;
59728;SDS011;45588;51.598;5.618;2023-06-14T00:25:17;9.00;;;6.10;;
59728;SDS011;45588;51.598;5.618;2023-06-14T00:27:42;14.83;;;7.13;;
59728;SDS011;45588;51.598;5.618;2023-06-14T00:30:08;11.80;;;6.63;;
59728;SDS011;45588;51.598;5.618;2023-06-14T00:32:33;11.07;;;8.30;;
59728;SDS011;45588;51.598;5.618;2023-06-14T00:34:58;9.63;;;6.07;;
59728;SDS011;45588;51.598;5.618;2023-06-14T00:37:23;7.95;;;6.30;;
59728;SDS011;45588;51.598;5.618;2023-06-14T00:39:48;9.27;;;6.57;;
59728;SDS011;45588;51.598;5.618;2023-06-14T00:42:23;7.53;;;5.90;;
59728;SDS011;45588;51.598;5.618;2023-06-14T00:44:49;10.77;;;8.25;;
59728;SDS011;45588;51.598;5.618;2023-06-14T00:47:14;6.03;;;5.35;;
59728;SDS011;45588;51.598;5.618;2023-06-14T00:49:39;6.63;;;5.27;;
59728;SDS011;45588;51.598;5.618;2023-06-14T00:52:05;10.07;;;5.63;;
59728;SDS011;45588;51.598;5.618;2023-06-14T00:54:31;11.05;;;6.00;;
59728;SDS011;45588;51.598;5.618;2023-06-14T00:56:56;7.40;;;5.70;;
59728;SDS011;45588;51.598;5.618;2023-06-14T00:59:21;7.53;;;5.50;;
59728;SDS011;45588;51.598;5.618;2023-06-14T01:01:46;8.57;;;5.78;;
59728;SDS011;45588;51.598;5.618;2023-06-14T01:04:13;9.57;;;5.35;;
59728;SDS011;45588;51.598;5.618;2023-06-14T01:09:27;14.40;;;6.10;;
59728;SDS011;45588;51.598;5.618;2023-06-14T01:16:51;9.90;;;5.63;;
59728;SDS011;45588;51.598;5.618;2023-06-14T01:19:18;6.55;;;5.20;;
59728;SDS011;45588;51.598;5.618;2023-06-14T01:21:44;9.77;;;5.60;;
59728;SDS011;45588;51.598;5.618;2023-06-14T01:24:09;8.30;;;5.30;;
59728;SDS011;45588;51.598;5.618;2023-06-14T01:26:34;7.82;;;5.88;;
59728;SDS011;45588;51.598;5.618;2023-06-14T01:29:02;8.13;;;5.63;;
59728;SDS011;45588;51.598;5.618;2023-06-14T01:31:28;8.50;;;5.10;;
59728;SDS011;45588;51.598;5.618;2023-06-14T01:33:54;9.25;;;5.90;;
59728;SDS011;45588;51.598;5.618;2023-06-14T01:36:19;10.07;;;7.95;;
59728;SDS011;45588;51.598;5.618;2023-06-14T01:38:46;6.13;;;4.65;;
59728;SDS011;45588;51.598;5.618;2023-06-14T01:41:11;8.80;;;6.47;;
59728;SDS011;45588;51.598;5.618;2023-06-14T01:43:36;7.07;;;4.88;;
59728;SDS011;45588;51.598;5.618;2023-06-14T01:46:03;8.40;;;4.60;;
59728;SDS011;45588;51.598;5.618;2023-06-14T01:48:29;11.63;;;5.65;;
59728;SDS011;45588;51.598;5.618;2023-06-14T01:50:54;15.00;;;7.47;;
59728;SDS011;45588;51.598;5.618;2023-06-14T01:53:20;10.13;;;5.23;;
59728;SDS011;45588;51.598;5.618;2023-06-14T01:55:45;6.32;;;4.88;;
59728;SDS011;45588;51.598;5.618;2023-06-14T01:58:13;10.63;;;4.18;;
59728;SDS011;45588;51.598;5.618;2023-06-14T02:00:38;7.78;;;4.68;;
59728;SDS011;45588;51.598;5.618;2023-06-14T02:03:03;14.00;;;5.90;;
59728;SDS011;45588;51.598;5.618;2023-06-14T02:05:29;9.07;;;4.80;;
59728;SDS011;45588;51.598;5.618;2023-06-14T02:07:55;6.50;;;4.75;;
59728;SDS011;45588;51.598;5.618;2023-06-14T02:10:20;11.23;;;5.97;;
59728;SDS011;45588;51.598;5.618;2023-06-14T02:12:45;8.18;;;5.00;;
59728;SDS011;45588;51.598;5.618;2023-06-14T02:15:10;10.35;;;4.95;;
59728;SDS011;45588;51.598;5.618;2023-06-14T02:17:42;11.45;;;4.85;;
59728;SDS011;45588;51.598;5.618;2023-06-14T02:20:07;5.63;;;4.13;;
59728;SDS011;45588;51.598;5.618;2023-06-14T02:22:33;6.32;;;4.22;;
59728;SDS011;45588;51.598;5.618;2023-06-14T02:24:58;7.97;;;5.37;;
59728;SDS011;45588;51.598;5.618;2023-06-14T02:27:23;12.67;;;5.30;;
59728;SDS011;45588;51.598;5.618;2023-06-14T02:29:48;8.07;;;5.17;;
59728;SDS011;45588;51.598;5.618;2023-06-14T02:32:14;10.65;;;5.00;;
59728;SDS011;45588;51.598;5.618;2023-06-14T02:34:39;6.80;;;4.18;;
59728;SDS011;45588;51.598;5.618;2023-06-14T02:37:06;7.00;;;4.65;;
59728;SDS011;45588;51.598;5.618;2023-06-14T02:39:31;10.95;;;4.93;;
59728;SDS011;45588;51.598;5.618;2023-06-14T02:41:56;4.80;;;3.90;;
59728;SDS011;45588;51.598;5.618;2023-06-14T02:44:25;7.38;;;4.88;;
59728;SDS011;45588;51.598;5.618;2023-06-14T02:46:52;6.35;;;4.40;;
59728;SDS011;45588;51.598;5.618;2023-06-14T02:49:17;6.60;;;4.35;;
59728;SDS011;45588;51.598;5.618;2023-06-14T02:51:42;7.83;;;4.60;;
59728;SDS011;45588;51.598;5.618;2023-06-14T02:54:07;7.17;;;4.30;;
59728;SDS011;45588;51.598;5.618;2023-06-14T02:56:32;8.60;;;4.70;;
59728;SDS011;45588;51.598;5.618;2023-06-14T02:58:58;8.57;;;5.20;;
59728;SDS011;45588;51.598;5.618;2023-06-14T03:01:25;6.18;;;4.93;;
59728;SDS011;45588;51.598;5.618;2023-06-14T03:03:51;11.57;;;4.68;;
59728;SDS011;45588;51.598;5.618;2023-06-14T03:06:16;8.40;;;4.47;;
59728;SDS011;45588;51.598;5.618;2023-06-14T03:08:41;8.07;;;4.38;;
59728;SDS011;45588;51.598;5.618;2023-06-14T03:11:07;5.95;;;4.13;;
59728;SDS011;45588;51.598;5.618;2023-06-14T03:13:32;9.20;;;5.10;;
59728;SDS011;45588;51.598;5.618;2023-06-14T03:15:58;6.28;;;4.72;;
59728;SDS011;45588;51.598;5.618;2023-06-14T03:18:23;12.57;;;4.50;;
59728;SDS011;45588;51.598;5.618;2023-06-14T03:20:50;8.13;;;4.28;;
59728;SDS011;45588;51.598;5.618;2023-06-14T03:23:16;7.80;;;4.80;;
59728;SDS011;45588;51.598;5.618;2023-06-14T03:25:41;8.57;;;5.17;;
59728;SDS011;45588;51.598;5.618;2023-06-14T03:28:07;12.43;;;4.72;;
59728;SDS011;45588;51.598;5.618;2023-06-14T03:30:32;10.23;;;5.30;;
59728;SDS011;45588;51.598;5.618;2023-06-14T03:32:57;5.67;;;4.10;;
59728;SDS011;45588;51.598;5.618;2023-06-14T03:35:26;7.63;;;4.10;;
59728;SDS011;45588;51.598;5.618;2023-06-14T03:37:51;5.32;;;4.55;;
59728;SDS011;45588;51.598;5.618;2023-06-14T03:40:17;13.63;;;5.13;;
59728;SDS011;45588;51.598;5.618;2023-06-14T03:42:42;7.20;;;4.32;;
59728;SDS011;45588;51.598;5.618;2023-06-14T03:45:07;10.23;;;4.17;;
59728;SDS011;45588;51.598;5.618;2023-06-14T03:47:33;7.18;;;4.13;;
59728;SDS011;45588;51.598;5.618;2023-06-14T03:49:58;10.13;;;4.65;;
59728;SDS011;45588;51.598;5.618;2023-06-14T03:52:25;9.10;;;4.15;;
59728;SDS011;45588;51.598;5.618;2023-06-14T03:54:51;7.50;;;4.38;;
59728;SDS011;45588;51.598;5.618;2023-06-14T03:57:16;9.25;;;6.45;;
59728;SDS011;45588;51.598;5.618;2023-06-14T03:59:41;8.50;;;4.22;;
59728;SDS011;45588;51.598;5.618;2023-06-14T04:02:07;10.97;;;4.23;;
59728;SDS011;45588;51.598;5.618;2023-06-14T04:04:32;7.72;;;3.88;;
59728;SDS011;45588;51.598;5.618;2023-06-14T04:06:57;8.30;;;4.15;;
59728;SDS011;45588;51.598;5.618;2023-06-14T04:09:23;4.78;;;3.78;;
59728;SDS011;45588;51.598;5.618;2023-06-14T04:11:49;7.80;;;4.55;;
59728;SDS011;45588;51.598;5.618;2023-06-14T04:14:15;7.75;;;4.07;;
59728;SDS011;45588;51.598;5.618;2023-06-14T04:16:40;9.47;;;6.63;;
59728;SDS011;45588;51.598;5.618;2023-06-14T04:19:05;6.07;;;4.00;;
59728;SDS011;45588;51.598;5.618;2023-06-14T04:21:30;9.27;;;6.15;;
59728;SDS011;45588;51.598;5.618;2023-06-14T04:23:56;7.60;;;4.50;;
59728;SDS011;45588;51.598;5.618;2023-06-14T04:26:21;6.73;;;4.20;;
59728;SDS011;45588;51.598;5.618;2023-06-14T04:28:48;8.65;;;6.45;;
59728;SDS011;45588;51.598;5.618;2023-06-14T04:31:14;9.40;;;4.60;;
59728;SDS011;45588;51.598;5.618;2023-06-14T04:33:41;7.75;;;4.65;;
59728;SDS011;45588;51.598;5.618;2023-06-14T04:36:11;10.82;;;6.38;;
59728;SDS011;45588;51.598;5.618;2023-06-14T04:38:37;5.90;;;4.43;;
59728;SDS011;45588;51.598;5.618;2023-06-14T04:41:02;9.52;;;6.55;;
59728;SDS011;45588;51.598;5.618;2023-06-14T04:43:28;8.10;;;5.93;;
59728;SDS011;45588;51.598;5.618;2023-06-14T04:45:53;7.93;;;4.45;;
59728;SDS011;45588;51.598;5.618;2023-06-14T04:48:20;8.57;;;4.80;;
59728;SDS011;45588;51.598;5.618;2023-06-14T04:50:46;9.93;;;6.20;;
59728;SDS011;45588;51.598;5.618;2023-06-14T04:53:11;8.52;;;6.10;;
59728;SDS011;45588;51.598;5.618;2023-06-14T04:55:36;9.48;;;6.05;;
59728;SDS011;45588;51.598;5.618;2023-06-14T04:58:02;5.63;;;3.85;;
59728;SDS011;45588;51.598;5.618;2023-06-14T05:00:28;5.18;;;4.38;;
59728;SDS011;45588;51.598;5.618;2023-06-14T05:02:53;5.33;;;3.70;;
59728;SDS011;45588;51.598;5.618;2023-06-14T05:05:18;8.90;;;5.93;;
59728;SDS011;45588;51.598;5.618;2023-06-14T05:07:44;9.35;;;5.82;;
59728;SDS011;45588;51.598;5.618;2023-06-14T05:10:10;9.80;;;5.57;;
59728;SDS011;45588;51.598;5.618;2023-06-14T05:12:35;6.05;;;3.75;;
59728;SDS011;45588;51.598;5.618;2023-06-14T05:15:01;7.10;;;4.13;;
59728;SDS011;45588;51.598;5.618;2023-06-14T05:17:26;14.48;;;5.15;;
59728;SDS011;45588;51.598;5.618;2023-06-14T05:19:53;9.48;;;4.57;;
59728;SDS011;45588;51.598;5.618;2023-06-14T05:22:18;7.35;;;4.85;;
59728;SDS011;45588;51.598;5.618;2023-06-14T05:24:43;8.10;;;4.90;;
59728;SDS011;45588;51.598;5.618;2023-06-14T05:27:08;6.90;;;4.05;;
59728;SDS011;45588;51.598;5.618;2023-06-14T05:29:33;7.60;;;4.93;;
59728;SDS011;45588;51.598;5.618;2023-06-14T05:31:58;10.53;;;4.63;;
59728;SDS011;45588;51.598;5.618;2023-06-14T05:34:24;9.10;;;6.10;;
59728;SDS011;45588;51.598;5.618;2023-06-14T05:36:49;13.30;;;6.60;;
59728;SDS011;45588;51.598;5.618;2023-06-14T05:39:14;11.00;;;4.43;;
59728;SDS011;45588;51.598;5.618;2023-06-14T05:41:39;6.93;;;3.90;;
59728;SDS011;45588;51.598;5.618;2023-06-14T05:44:05;7.28;;;4.78;;
59728;SDS011;45588;51.598;5.618;2023-06-14T05:46:30;15.15;;;5.38;;
59728;SDS011;45588;51.598;5.618;2023-06-14T05:48:55;6.80;;;4.45;;
59728;SDS011;45588;51.598;5.618;2023-06-14T05:51:20;8.35;;;6.07;;
59728;SDS011;45588;51.598;5.618;2023-06-14T05:53:49;7.47;;;5.57;;
59728;SDS011;45588;51.598;5.618;2023-06-14T05:56:15;6.28;;;4.18;;
59728;SDS011;45588;51.598;5.618;2023-06-14T05:58:40;7.90;;;4.45;;
59728;SDS011;45588;51.598;5.618;2023-06-14T06:01:05;6.23;;;4.63;;
59728;SDS011;45588;51.598;5.618;2023-06-14T06:03:31;7.70;;;5.93;;
59728;SDS011;45588;51.598;5.618;2023-06-14T06:05:56;14.80;;;5.80;;
59728;SDS011;45588;51.598;5.618;2023-06-14T06:08:21;9.65;;;6.25;;
59728;SDS011;45588;51.598;5.618;2023-06-14T06:10:46;7.90;;;5.70;;
59728;SDS011;45588;51.598;5.618;2023-06-14T06:13:11;7.28;;;5.07;;
59728;SDS011;45588;51.598;5.618;2023-06-14T06:15:37;7.03;;;4.97;;
59728;SDS011;45588;51.598;5.618;2023-06-14T06:18:02;10.43;;;6.10;;
59728;SDS011;45588;51.598;5.618;2023-06-14T06:20:28;9.15;;;6.18;;
59728;SDS011;45588;51.598;5.618;2023-06-14T06:22:56;9.73;;;5.90;;
59728;SDS011;45588;51.598;5.618;2023-06-14T06:25:21;6.13;;;4.30;;
59728;SDS011;45588;51.598;5.618;2023-06-14T06:27:47;4.25;;;3.47;;
59728;SDS011;45588;51.598;5.618;2023-06-14T06:30:12;10.77;;;5.43;;
59728;SDS011;45588;51.598;5.618;2023-06-14T06:32:37;9.82;;;5.35;;
59728;SDS011;45588;51.598;5.618;2023-06-14T06:35:03;7.67;;;4.87;;
59728;SDS011;45588;51.598;5.618;2023-06-14T06:37:31;10.80;;;5.00;;
59728;SDS011;45588;51.598;5.618;2023-06-14T06:39:56;8.13;;;5.17;;
59728;SDS011;45588;51.598;5.618;2023-06-14T06:42:21;7.63;;;5.37;;
59728;SDS011;45588;51.598;5.618;2023-06-14T06:44:46;5.07;;;3.65;;
59728;SDS011;45588;51.598;5.618;2023-06-14T06:47:11;11.00;;;3.87;;
59728;SDS011;45588;51.598;5.618;2023-06-14T06:49:37;6.70;;;5.23;;
59728;SDS011;45588;51.598;5.618;2023-06-14T06:52:03;9.33;;;5.20;;
59728;SDS011;45588;51.598;5.618;2023-06-14T06:54:28;10.80;;;5.45;;
59728;SDS011;45588;51.598;5.618;2023-06-14T06:56:53;9.15;;;5.03;;
59728;SDS011;45588;51.598;5.618;2023-06-14T06:59:18;7.77;;;4.70;;
59728;SDS011;45588;51.598;5.618;2023-06-14T07:01:44;7.68;;;5.00;;
59728;SDS011;45588;51.598;5.618;2023-06-14T07:04:09;6.93;;;5.13;;
59728;SDS011;45588;51.598;5.618;2023-06-14T07:06:35;10.93;;;5.93;;
59728;SDS011;45588;51.598;5.618;2023-06-14T07:09:00;7.88;;;5.60;;
59728;SDS011;45588;51.598;5.618;2023-06-14T07:11:26;7.03;;;5.50;;
59728;SDS011;45588;51.598;5.618;2023-06-14T07:13:51;7.50;;;5.03;;
59728;SDS011;45588;51.598;5.618;2023-06-14T07:16:17;8.95;;;4.75;;
59728;SDS011;45588;51.598;5.618;2023-06-14T07:18:42;8.63;;;4.80;;
59728;SDS011;45588;51.598;5.618;2023-06-14T07:21:07;7.60;;;4.35;;
59728;SDS011;45588;51.598;5.618;2023-06-14T07:23:33;8.02;;;4.80;;
59728;SDS011;45588;51.598;5.618;2023-06-14T07:25:58;9.70;;;4.93;;
59728;SDS011;45588;51.598;5.618;2023-06-14T07:28:23;7.60;;;4.80;;
59728;SDS011;45588;51.598;5.618;2023-06-14T07:30:48;6.97;;;4.37;;
59728;SDS011;45588;51.598;5.618;2023-06-14T07:33:13;7.55;;;4.35;;
59728;SDS011;45588;51.598;5.618;2023-06-14T07:35:38;5.50;;;4.30;;
59728;SDS011;45588;51.598;5.618;2023-06-14T07:38:04;7.45;;;4.38;;
59728;SDS011;45588;51.598;5.618;2023-06-14T07:40:29;9.97;;;4.53;;
59728;SDS011;45588;51.598;5.618;2023-06-14T07:42:54;9.57;;;4.63;;
59728;SDS011;45588;51.598;5.618;2023-06-14T07:45:20;6.65;;;3.92;;
59728;SDS011;45588;51.598;5.618;2023-06-14T07:47:45;7.38;;;4.25;;
59728;SDS011;45588;51.598;5.618;2023-06-14T07:50:10;5.30;;;4.22;;
59728;SDS011;45588;51.598;5.618;2023-06-14T07:52:36;9.10;;;4.45;;
59728;SDS011;45588;51.598;5.618;2023-06-14T07:55:01;8.33;;;4.43;;
59728;SDS011;45588;51.598;5.618;2023-06-14T07:57:27;5.75;;;4.38;;
59728;SDS011;45588;51.598;5.618;2023-06-14T07:59:52;8.67;;;4.13;;
59728;SDS011;45588;51.598;5.618;2023-06-14T08:02:17;6.57;;;3.80;;
59728;SDS011;45588;51.598;5.618;2023-06-14T08:04:42;6.75;;;3.92;;
59728;SDS011;45588;51.598;5.618;2023-06-14T08:07:08;10.38;;;4.00;;
59728;SDS011;45588;51.598;5.618;2023-06-14T08:09:33;8.00;;;4.28;;
59728;SDS011;45588;51.598;5.618;2023-06-14T08:11:58;14.32;;;4.70;;
59728;SDS011;45588;51.598;5.618;2023-06-14T08:14:23;5.77;;;3.60;;
59728;SDS011;45588;51.598;5.618;2023-06-14T08:16:49;12.43;;;3.90;;
59728;SDS011;45588;51.598;5.618;2023-06-14T08:19:14;13.80;;;4.55;;
59728;SDS011;45588;51.598;5.618;2023-06-14T08:21:41;5.72;;;3.80;;
59728;SDS011;45588;51.598;5.618;2023-06-14T08:24:07;6.32;;;3.40;;
59728;SDS011;45588;51.598;5.618;2023-06-14T08:26:32;5.00;;;3.47;;
59728;SDS011;45588;51.598;5.618;2023-06-14T08:28:57;8.17;;;3.50;;
59728;SDS011;45588;51.598;5.618;2023-06-14T08:31:23;6.28;;;3.33;;
59728;SDS011;45588;51.598;5.618;2023-06-14T08:33:49;11.07;;;3.30;;
59728;SDS011;45588;51.598;5.618;2023-06-14T08:36:14;4.97;;;2.67;;
59728;SDS011;45588;51.598;5.618;2023-06-14T08:38:39;7.30;;;2.78;;
59728;SDS011;45588;51.598;5.618;2023-06-14T08:41:05;4.45;;;2.63;;
59728;SDS011;45588;51.598;5.618;2023-06-14T08:43:31;2.88;;;2.15;;
59728;SDS011;45588;51.598;5.618;2023-06-14T08:46:00;3.78;;;2.72;;
59728;SDS011;45588;51.598;5.618;2023-06-14T08:48:26;7.05;;;2.28;;
59728;SDS011;45588;51.598;5.618;2023-06-14T08:50:51;2.97;;;1.98;;
59728;SDS011;45588;51.598;5.618;2023-06-14T08:53:18;3.55;;;2.40;;
59728;SDS011;45588;51.598;5.618;2023-06-14T08:55:44;3.60;;;2.70;;
59728;SDS011;45588;51.598;5.618;2023-06-14T08:58:10;2.38;;;2.03;;
59728;SDS011;45588;51.598;5.618;2023-06-14T09:00:39;4.50;;;1.83;;
59728;SDS011;45588;51.598;5.618;2023-06-14T09:03:06;5.93;;;2.17;;
59728;SDS011;45588;51.598;5.618;2023-06-14T09:05:38;4.25;;;2.15;;
59728;SDS011;45588;51.598;5.618;2023-06-14T09:08:03;6.57;;;1.88;;
59728;SDS011;45588;51.598;5.618;2023-06-14T09:10:30;4.25;;;1.83;;
59728;SDS011;45588;51.598;5.618;2023-06-14T09:12:58;6.35;;;1.70;;
59728;SDS011;45588;51.598;5.618;2023-06-14T09:15:25;1.80;;;1.70;;
59728;SDS011;45588;51.598;5.618;2023-06-14T09:17:50;2.67;;;1.70;;
59728;SDS011;45588;51.598;5.618;2023-06-14T09:20:16;8.35;;;2.30;;
59728;SDS011;45588;51.598;5.618;2023-06-14T09:22:44;3.70;;;1.90;;
59728;SDS011;45588;51.598;5.618;2023-06-14T09:25:10;2.10;;;1.63;;
59728;SDS011;45588;51.598;5.618;2023-06-14T09:27:36;2.67;;;2.05;;
59728;SDS011;45588;51.598;5.618;2023-06-14T09:30:04;15.43;;;2.05;;
59728;SDS011;45588;51.598;5.618;2023-06-14T09:32:30;4.35;;;2.30;;
59728;SDS011;45588;51.598;5.618;2023-06-14T09:34:55;6.38;;;2.17;;
59728;SDS011;45588;51.598;5.618;2023-06-14T09:37:30;3.40;;;1.90;;
59728;SDS011;45588;51.598;5.618;2023-06-14T09:39:56;3.40;;;2.08;;
59728;SDS011;45588;51.598;5.618;2023-06-14T09:42:21;2.80;;;1.90;;
59728;SDS011;45588;51.598;5.618;2023-06-14T09:44:48;3.72;;;2.30;;
59728;SDS011;45588;51.598;5.618;2023-06-14T09:47:14;3.42;;;2.20;;
59728;SDS011;45588;51.598;5.618;2023-06-14T09:49:40;3.90;;;2.53;;
59728;SDS011;45588;51.598;5.618;2023-06-14T09:52:06;3.10;;;1.98;;
59728;SDS011;45588;51.598;5.618;2023-06-14T09:54:31;5.18;;;2.72;;
59728;SDS011;45588;51.598;5.618;2023-06-14T09:57:00;3.58;;;2.60;;
59728;SDS011;45588;51.598;5.618;2023-06-14T09:59:27;2.47;;;2.20;;
59728;SDS011;45588;51.598;5.618;2023-06-14T10:01:57;3.95;;;2.40;;
59728;SDS011;45588;51.598;5.618;2023-06-14T10:04:23;4.82;;;2.67;;
59728;SDS011;45588;51.598;5.618;2023-06-14T10:06:48;3.15;;;2.30;;
59728;SDS011;45588;51.598;5.618;2023-06-14T10:09:15;4.72;;;2.88;;
59728;SDS011;45588;51.598;5.618;2023-06-14T10:11:40;2.97;;;2.45;;
59728;SDS011;45588;51.598;5.618;2023-06-14T10:14:08;5.43;;;2.50;;
59728;SDS011;45588;51.598;5.618;2023-06-14T10:16:36;3.33;;;2.40;;
59728;SDS011;45588;51.598;5.618;2023-06-14T10:21:32;15.55;;;4.03;;
59728;SDS011;45588;51.598;5.618;2023-06-14T10:23:58;3.42;;;2.72;;
59728;SDS011;45588;51.598;5.618;2023-06-14T10:26:26;5.32;;;2.65;;
59728;SDS011;45588;51.598;5.618;2023-06-14T10:29:01;4.90;;;2.60;;
59728;SDS011;45588;51.598;5.618;2023-06-14T10:31:39;3.45;;;2.47;;
59728;SDS011;45588;51.598;5.618;2023-06-14T10:34:05;4.25;;;3.03;;
59728;SDS011;45588;51.598;5.618;2023-06-14T10:36:30;6.47;;;3.33;;
59728;SDS011;45588;51.598;5.618;2023-06-14T10:41:54;7.63;;;3.10;;
59728;SDS011;45588;51.598;5.618;2023-06-14T10:46:48;6.63;;;2.95;;
59728;SDS011;45588;51.598;5.618;2023-06-14T10:49:16;8.50;;;3.05;;
59728;SDS011;45588;51.598;5.618;2023-06-14T10:51:44;5.45;;;2.70;;
59728;SDS011;45588;51.598;5.618;2023-06-14T10:54:13;9.98;;;2.80;;
59728;SDS011;45588;51.598;5.618;2023-06-14T10:59:13;5.47;;;2.60;;
59728;SDS011;45588;51.598;5.618;2023-06-14T11:01:40;4.10;;;2.67;;
59728;SDS011;45588;51.598;5.618;2023-06-14T11:04:10;4.40;;;2.58;;
59728;SDS011;45588;51.598;5.618;2023-06-14T11:06:53;5.72;;;2.45;;
59728;SDS011;45588;51.598;5.618;2023-06-14T11:12:08;5.15;;;2.78;;
59728;SDS011;45588;51.598;5.618;2023-06-14T11:14:35;6.35;;;2.65;;
59728;SDS011;45588;51.598;5.618;2023-06-14T11:17:00;5.03;;;2.50;;
59728;SDS011;45588;51.598;5.618;2023-06-14T11:19:25;5.95;;;2.90;;
59728;SDS011;45588;51.598;5.618;2023-06-14T11:21:53;5.20;;;2.83;;
59728;SDS011;45588;51.598;5.618;2023-06-14T11:24:19;4.20;;;2.67;;
59728;SDS011;45588;51.598;5.618;2023-06-14T11:26:46;4.78;;;2.50;;
59728;SDS011;45588;51.598;5.618;2023-06-14T11:29:12;4.40;;;2.35;;
59728;SDS011;45588;51.598;5.618;2023-06-14T11:31:37;2.72;;;2.30;;
59728;SDS011;45588;51.598;5.618;2023-06-14T11:34:02;4.53;;;2.40;;
59728;SDS011;45588;51.598;5.618;2023-06-14T11:36:29;3.63;;;2.10;;
59728;SDS011;45588;51.598;5.618;2023-06-14T11:38:59;5.72;;;2.95;;
59728;SDS011;45588;51.598;5.618;2023-06-14T11:41:24;6.72;;;2.50;;
59728;SDS011;45588;51.598;5.618;2023-06-14T11:43:52;5.15;;;2.60;;
59728;SDS011;45588;51.598;5.618;2023-06-14T11:46:17;3.72;;;2.40;;
59728;SDS011;45588;51.598;5.618;2023-06-14T11:48:47;3.92;;;2.13;;
59728;SDS011;45588;51.598;5.618;2023-06-14T11:51:12;6.00;;;2.23;;
59728;SDS011;45588;51.598;5.618;2023-06-14T11:53:37;2.78;;;2.13;;
59728;SDS011;45588;51.598;5.618;2023-06-14T11:56:02;4.40;;;2.42;;
59728;SDS011;45588;51.598;5.618;2023-06-14T11:58:28;4.20;;;2.60;;
59728;SDS011;45588;51.598;5.618;2023-06-14T12:00:54;3.72;;;2.80;;
59728;SDS011;45588;51.598;5.618;2023-06-14T12:03:23;3.00;;;2.65;;
59728;SDS011;45588;51.598;5.618;2023-06-14T12:05:50;3.92;;;2.22;;
59728;SDS011;45588;51.598;5.618;2023-06-14T12:08:16;6.05;;;2.58;;
59728;SDS011;45588;51.598;5.618;2023-06-14T12:10:42;3.08;;;2.50;;
59728;SDS011;45588;51.598;5.618;2023-06-14T12:13:08;5.50;;;2.67;;
59728;SDS011;45588;51.598;5.618;2023-06-14T12:15:34;3.80;;;2.92;;
59728;SDS011;45588;51.598;5.618;2023-06-14T12:17:59;3.92;;;2.80;;
59728;SDS011;45588;51.598;5.618;2023-06-14T12:20:29;5.40;;;2.70;;
59728;SDS011;45588;51.598;5.618;2023-06-14T12:22:56;3.97;;;2.90;;
59728;SDS011;45588;51.598;5.618;2023-06-14T12:25:30;4.32;;;2.65;;
59728;SDS011;45588;51.598;5.618;2023-06-14T12:27:56;4.57;;;2.63;;
59728;SDS011;45588;51.598;5.618;2023-06-14T12:30:22;2.53;;;2.22;;
59728;SDS011;45588;51.598;5.618;2023-06-14T12:32:47;6.47;;;2.63;;
59728;SDS011;45588;51.598;5.618;2023-06-14T12:35:13;6.07;;;2.35;;
59728;SDS011;45588;51.598;5.618;2023-06-14T12:37:38;5.33;;;2.33;;
59728;SDS011;45588;51.598;5.618;2023-06-14T12:40:03;3.97;;;2.40;;
59728;SDS011;45588;51.598;5.618;2023-06-14T12:42:30;4.72;;;2.22;;
59728;SDS011;45588;51.598;5.618;2023-06-14T12:44:56;3.03;;;2.47;;
59728;SDS011;45588;51.598;5.618;2023-06-14T12:47:21;3.70;;;2.13;;
59728;SDS011;45588;51.598;5.618;2023-06-14T12:49:46;4.57;;;2.47;;
59728;SDS011;45588;51.598;5.618;2023-06-14T12:52:11;2.83;;;2.50;;
59728;SDS011;45588;51.598;5.618;2023-06-14T12:54:37;3.35;;;2.28;;
59728;SDS011;45588;51.598;5.618;2023-06-14T12:57:04;2.78;;;2.53;;
59728;SDS011;45588;51.598;5.618;2023-06-14T12:59:29;5.80;;;3.25;;
59728;SDS011;45588;51.598;5.618;2023-06-14T13:01:57;5.88;;;2.53;;
59728;SDS011;45588;51.598;5.618;2023-06-14T13:04:23;4.87;;;2.97;;
59728;SDS011;45588;51.598;5.618;2023-06-14T13:06:48;5.60;;;2.60;;
59728;SDS011;45588;51.598;5.618;2023-06-14T13:09:13;3.00;;;2.70;;
59728;SDS011;45588;51.598;5.618;2023-06-14T13:11:40;2.50;;;2.30;;
59728;SDS011;45588;51.598;5.618;2023-06-14T13:14:05;2.67;;;2.17;;
59728;SDS011;45588;51.598;5.618;2023-06-14T13:16:30;1.90;;;1.80;;
59728;SDS011;45588;51.598;5.618;2023-06-14T13:18:56;5.30;;;2.83;;
59728;SDS011;45588;51.598;5.618;2023-06-14T13:21:21;6.30;;;2.80;;
59728;SDS011;45588;51.598;5.618;2023-06-14T13:23:46;5.20;;;2.47;;
59728;SDS011;45588;51.598;5.618;2023-06-14T13:26:11;4.20;;;2.10;;
59728;SDS011;45588;51.598;5.618;2023-06-14T13:28:37;8.18;;;2.50;;
59728;SDS011;45588;51.598;5.618;2023-06-14T13:31:02;5.43;;;2.37;;
59728;SDS011;45588;51.598;5.618;2023-06-14T13:33:27;5.77;;;2.30;;
59728;SDS011;45588;51.598;5.618;2023-06-14T13:35:52;2.17;;;1.97;;
59728;SDS011;45588;51.598;5.618;2023-06-14T13:38:18;6.03;;;2.10;;
59728;SDS011;45588;51.598;5.618;2023-06-14T13:40:43;2.80;;;2.20;;
59728;SDS011;45588;51.598;5.618;2023-06-14T13:43:08;8.20;;;2.63;;
59728;SDS011;45588;51.598;5.618;2023-06-14T13:45:33;3.77;;;1.93;;
59728;SDS011;45588;51.598;5.618;2023-06-14T13:47:58;2.70;;;2.20;;
59728;SDS011;45588;51.598;5.618;2023-06-14T13:50:24;5.05;;;2.20;;
59728;SDS011;45588;51.598;5.618;2023-06-14T13:52:50;4.60;;;2.40;;
59728;SDS011;45588;51.598;5.618;2023-06-14T13:55:15;5.47;;;2.20;;
59728;SDS011;45588;51.598;5.618;2023-06-14T13:57:40;3.07;;;1.60;;
59728;SDS011;45588;51.598;5.618;2023-06-14T14:00:05;3.57;;;1.97;;
59728;SDS011;45588;51.598;5.618;2023-06-14T14:02:31;7.93;;;1.50;;
59728;SDS011;45588;51.598;5.618;2023-06-14T14:04:56;3.70;;;2.13;;
59728;SDS011;45588;51.598;5.618;2023-06-14T14:07:22;3.50;;;1.67;;
59728;SDS011;45588;51.598;5.618;2023-06-14T14:09:47;4.23;;;1.73;;
59728;SDS011;45588;51.598;5.618;2023-06-14T14:12:12;4.80;;;1.20;;
59728;SDS011;45588;51.598;5.618;2023-06-14T14:14:39;3.08;;;1.52;;
59728;SDS011;45588;51.598;5.618;2023-06-14T14:17:04;5.88;;;1.70;;
59728;SDS011;45588;51.598;5.618;2023-06-14T14:19:30;2.75;;;1.70;;
59728;SDS011;45588;51.598;5.618;2023-06-14T14:21:55;4.07;;;1.70;;
59728;SDS011;45588;51.598;5.618;2023-06-14T14:24:20;2.70;;;2.08;;
59728;SDS011;45588;51.598;5.618;2023-06-14T14:26:46;2.93;;;2.10;;
59728;SDS011;45588;51.598;5.618;2023-06-14T14:29:13;11.75;;;2.05;;
59728;SDS011;45588;51.598;5.618;2023-06-14T14:31:38;4.37;;;1.50;;
59728;SDS011;45588;51.598;5.618;2023-06-14T14:34:03;6.43;;;1.83;;
59728;SDS011;45588;51.598;5.618;2023-06-14T14:36:29;3.20;;;1.65;;
59728;SDS011;45588;51.598;5.618;2023-06-14T14:38:54;1.40;;;1.20;;
59728;SDS011;45588;51.598;5.618;2023-06-14T14:41:20;2.28;;;1.88;;
59728;SDS011;45588;51.598;5.618;2023-06-14T14:43:45;3.40;;;1.90;;
59728;SDS011;45588;51.598;5.618;2023-06-14T14:46:10;4.17;;;1.93;;
59728;SDS011;45588;51.598;5.618;2023-06-14T14:48:35;4.07;;;2.40;;
59728;SDS011;45588;51.598;5.618;2023-06-14T14:51:00;2.73;;;1.80;;
59728;SDS011;45588;51.598;5.618;2023-06-14T14:53:26;3.22;;;1.77;;
59728;SDS011;45588;51.598;5.618;2023-06-14T14:55:51;4.28;;;2.00;;
59728;SDS011;45588;51.598;5.618;2023-06-14T14:58:16;5.22;;;2.00;;